createdAt,value
2018-01-07T00:00:36.382Z,99.99
2018-01-07T00:01:46.334Z,99.99
2018-01-07T00:02:55.778Z,99.99
2018-01-07T00:04:05.209Z,99.99
2018-01-07T00:05:15.174Z,99.99
2018-01-07T00:06:24.855Z,99.99
2018-01-07T00:07:34.813Z,99.99
2018-01-07T00:08:44.263Z,99.99
2018-01-07T00:09:54.219Z,99.99
2018-01-07T00:11:03.916Z,99.99
2018-01-07T00:12:13.598Z,99.99
2018-01-07T00:13:23.566Z,99.99
2018-01-07T00:14:33.526Z,99.99
2018-01-07T00:15:43.478Z,99.99
2018-01-07T00:16:53.440Z,99.99
2018-01-07T00:18:03.221Z,99.99
2018-01-07T00:19:13.172Z,99.99
2018-01-07T00:20:23.119Z,99.99
2018-01-07T00:21:32.849Z,99.99
2018-01-07T00:22:42.540Z,99.99
2018-01-07T00:23:52.232Z,99.99
2018-01-07T00:25:01.686Z,99.99
2018-01-07T00:26:11.651Z,99.99
2018-01-07T00:27:21.608Z,99.99
2018-01-07T00:28:31.299Z,99.99
2018-01-07T00:29:41.512Z,99.99
2018-01-07T00:30:51.210Z,99.99
2018-01-07T00:32:00.902Z,99.99
2018-01-07T00:33:10.590Z,99.99
2018-01-07T00:34:20.539Z,99.99
2018-01-07T00:35:30.499Z,99.99
2018-01-07T00:36:40.443Z,99.99
2018-01-07T00:37:50.417Z,99.99
2018-01-07T00:39:00.362Z,99.99
2018-01-07T00:40:10.101Z,99.99
2018-01-07T00:41:19.852Z,99.99
2018-01-07T00:42:29.815Z,99.99
2018-01-07T00:43:39.771Z,99.99
2018-01-07T00:44:49.720Z,99.99
2018-01-07T00:45:59.155Z,99.99
2018-01-07T00:47:09.096Z,99.99
2018-01-07T00:48:18.792Z,99.99
2018-01-07T00:49:28.224Z,99.99
2018-01-07T00:50:38.176Z,99.99
2018-01-07T00:51:47.882Z,99.99
2018-01-07T00:52:57.589Z,99.99
2018-01-07T00:54:07.539Z,99.99
2018-01-07T00:55:17.522Z,99.99
2018-01-07T00:56:27.469Z,99.99
2018-01-07T00:57:37.435Z,99.99
2018-01-07T00:58:47.121Z,99.99
2018-01-07T00:59:57.115Z,99.99
2018-01-07T01:01:07.062Z,99.99
2018-01-07T01:02:16.740Z,99.99
2018-01-07T01:03:26.697Z,99.99
2018-01-07T01:04:36.385Z,99.99
2018-01-07T01:05:46.345Z,99.99
2018-01-07T01:06:56.041Z,99.99
2018-01-07T01:08:05.756Z,99.99
2018-01-07T01:09:15.449Z,99.99
2018-01-07T01:10:25.399Z,99.99
2018-01-07T01:11:35.361Z,99.99
2018-01-07T01:12:45.058Z,99.99
2018-01-07T01:13:55.007Z,99.99
2018-01-07T01:15:04.959Z,99.99
2018-01-07T01:16:14.650Z,99.99
2018-01-07T01:17:24.597Z,99.99
2018-01-07T01:18:34.535Z,99.99
2018-01-07T01:19:44.225Z,99.99
2018-01-07T01:20:54.188Z,99.99
2018-01-07T01:22:04.157Z,99.99
2018-01-07T01:23:14.118Z,99.99
2018-01-07T01:24:23.820Z,99.99
2018-01-07T01:25:33.780Z,99.99
2018-01-07T01:26:43.729Z,99.99
2018-01-07T01:27:53.695Z,99.99
2018-01-07T01:29:03.649Z,99.99
2018-01-07T01:30:13.603Z,99.99
2018-01-07T01:31:23.559Z,99.99
2018-01-07T01:32:33.512Z,99.99
2018-01-07T01:33:43.456Z,99.99
2018-01-07T01:34:53.421Z,99.99
2018-01-07T01:36:03.366Z,99.99
2018-01-07T01:37:13.062Z,99.99
2018-01-07T01:38:22.748Z,99.99
2018-01-07T01:39:32.434Z,99.99
2018-01-07T01:40:42.395Z,99.99
2018-01-07T01:41:52.092Z,99.99
2018-01-07T01:43:02.040Z,99.99
2018-01-07T01:44:11.999Z,99.99
2018-01-07T01:45:21.446Z,99.99
2018-01-07T01:46:31.408Z,99.99
2018-01-07T01:47:41.353Z,99.99
2018-01-07T01:48:51.305Z,99.99
2018-01-07T01:50:01.259Z,99.99
2018-01-07T01:51:10.955Z,99.99
2018-01-07T01:52:20.901Z,99.99
2018-01-07T01:53:30.864Z,99.99
2018-01-07T01:54:40.811Z,99.99
2018-01-07T01:55:50.249Z,99.99
2018-01-07T01:57:00.195Z,99.99
2018-01-07T01:58:09.878Z,99.99
2018-01-07T01:59:19.831Z,99.99
2018-01-07T02:00:29.526Z,99.99
2018-01-07T02:01:39.256Z,99.99
2018-01-07T02:02:49.208Z,99.99
2018-01-07T02:03:59.169Z,99.99
2018-01-07T02:05:08.857Z,99.99
2018-01-07T02:06:18.804Z,99.99
2018-01-07T02:07:28.774Z,99.99
2018-01-07T02:08:38.730Z,99.99
2018-01-07T02:09:48.423Z,99.99
2018-01-07T02:10:57.853Z,99.99
2018-01-07T02:12:07.807Z,99.99
2018-01-07T02:13:17.765Z,99.99
2018-01-07T02:14:27.772Z,99.99
2018-01-07T02:15:37.716Z,99.99
2018-01-07T02:16:47.437Z,99.99
2018-01-07T02:17:57.387Z,99.99
2018-01-07T02:19:07.347Z,99.99
2018-01-07T02:20:17.292Z,99.99
2018-01-07T02:21:26.981Z,99.99
2018-01-07T02:22:36.918Z,99.99
2018-01-07T02:23:46.353Z,99.99
2018-01-07T02:24:56.301Z,99.99
2018-01-07T02:26:05.984Z,99.99
2018-01-07T02:27:15.941Z,99.99
2018-01-07T02:28:25.884Z,99.99
2018-01-07T02:29:35.326Z,99.99
2018-01-07T02:30:45.279Z,99.99
2018-01-07T02:31:54.986Z,99.99
2018-01-07T02:33:04.971Z,99.99
2018-01-07T02:34:14.922Z,99.99
2018-01-07T02:35:24.872Z,99.99
2018-01-07T02:36:34.809Z,99.99
2018-01-07T02:37:44.760Z,99.99
2018-01-07T02:38:54.724Z,99.99
2018-01-07T02:40:04.698Z,99.99
2018-01-07T02:41:14.139Z,99.99
2018-01-07T02:42:23.585Z,99.99
2018-01-07T02:43:33.283Z,99.99
2018-01-07T02:44:42.988Z,99.99
2018-01-07T02:45:52.692Z,99.99
2018-01-07T02:47:02.387Z,99.99
2018-01-07T02:48:12.338Z,99.99
2018-01-07T02:49:22.324Z,99.99
2018-01-07T02:50:32.299Z,99.99
2018-01-07T02:51:42.251Z,99.99
2018-01-07T02:52:52.206Z,99.99
2018-01-07T02:54:02.171Z,99.99
2018-01-07T02:55:11.878Z,99.99
2018-01-07T02:56:21.569Z,99.99
2018-01-07T02:57:31.521Z,99.99
2018-01-07T02:58:41.467Z,99.99
2018-01-07T02:59:51.413Z,99.99
2018-01-07T03:01:01.377Z,99.99
2018-01-07T03:02:11.328Z,99.99
2018-01-07T03:03:21.272Z,99.99
2018-01-07T03:04:30.974Z,99.99
2018-01-07T03:05:40.660Z,99.99
2018-01-07T03:06:50.619Z,99.99
2018-01-07T03:08:00.584Z,99.99
2018-01-07T03:09:10.281Z,99.99
2018-01-07T03:10:19.970Z,99.99
2018-01-07T03:11:29.911Z,99.99
2018-01-07T03:12:39.634Z,99.99
2018-01-07T03:13:49.579Z,99.99
2018-01-07T03:14:59.268Z,99.99
2018-01-07T03:16:09.216Z,99.99
2018-01-07T03:17:18.909Z,99.99
2018-01-07T03:18:28.904Z,99.99
2018-01-07T03:19:38.585Z,99.99
2018-01-07T03:20:48.528Z,99.99
2018-01-07T03:21:58.483Z,99.99
2018-01-07T03:23:08.189Z,99.99
2018-01-07T03:24:17.626Z,99.99
2018-01-07T03:25:27.574Z,99.99
2018-01-07T03:26:37.523Z,99.99
2018-01-07T03:27:47.490Z,99.99
2018-01-07T03:28:57.447Z,99.99
2018-01-07T03:30:08.911Z,99.99
2018-01-07T03:31:18.882Z,99.99
2018-01-07T03:32:28.586Z,99.99
2018-01-07T03:33:38.529Z,99.99
2018-01-07T03:34:48.223Z,99.99
2018-01-07T03:35:58.424Z,99.99
2018-01-07T03:37:08.124Z,99.99
2018-01-07T03:38:17.816Z,99.99
2018-01-07T03:39:27.769Z,99.99
2018-01-07T03:40:37.194Z,99.99
2018-01-07T03:41:47.154Z,99.99
2018-01-07T03:42:56.857Z,99.99
2018-01-07T03:44:06.283Z,99.99
2018-01-07T03:45:16.237Z,99.99
2018-01-07T03:46:26.187Z,99.99
2018-01-07T03:47:35.882Z,99.99
2018-01-07T03:48:45.826Z,99.99
2018-01-07T03:49:55.771Z,99.99
2018-01-07T03:51:05.719Z,99.99
2018-01-07T03:52:15.699Z,99.99
2018-01-07T03:53:25.395Z,99.99
2018-01-07T03:54:35.344Z,99.99
2018-01-07T03:55:44.775Z,99.99
2018-01-07T03:56:54.779Z,99.99
2018-01-07T03:58:04.727Z,99.99
2018-01-07T03:59:14.169Z,99.99
2018-01-07T04:00:23.629Z,99.99
2018-01-07T04:01:33.587Z,99.99
2018-01-07T04:02:43.295Z,99.99
2018-01-07T04:03:53.235Z,99.99
2018-01-07T04:05:03.186Z,99.99
2018-01-07T04:06:12.872Z,99.99
2018-01-07T04:07:22.813Z,99.99
2018-01-07T04:08:32.502Z,99.99
2018-01-07T04:09:42.455Z,99.99
2018-01-07T04:10:52.408Z,99.99
2018-01-07T04:12:02.366Z,99.99
2018-01-07T04:13:12.319Z,99.99
2018-01-07T04:14:22.007Z,99.99
2018-01-07T04:15:31.687Z,99.99
2018-01-07T04:16:41.622Z,99.99
2018-01-07T04:17:51.048Z,99.99
2018-01-07T04:19:00.736Z,99.99
2018-01-07T04:20:10.676Z,99.99
2018-01-07T04:21:20.630Z,99.99
2018-01-07T04:22:30.585Z,99.99
2018-01-07T04:23:40.031Z,99.99
2018-01-07T04:24:49.983Z,99.99
2018-01-07T04:25:59.417Z,99.99
2018-01-07T04:27:09.104Z,99.99
2018-01-07T04:28:18.550Z,99.99
2018-01-07T04:29:28.260Z,99.99
2018-01-07T04:30:38.202Z,99.99
2018-01-07T04:31:48.147Z,99.99
2018-01-07T04:32:57.857Z,99.99
2018-01-07T04:34:07.825Z,99.99
2018-01-07T04:35:17.509Z,99.99
2018-01-07T04:36:27.510Z,99.99
2018-01-07T04:37:37.457Z,99.99
2018-01-07T04:38:46.883Z,99.99
2018-01-07T04:39:56.580Z,99.99
2018-01-07T04:41:06.528Z,99.99
2018-01-07T04:42:16.486Z,99.99
2018-01-07T04:43:26.435Z,99.99
2018-01-07T04:44:36.371Z,99.99
2018-01-07T04:45:46.325Z,99.99
2018-01-07T04:46:56.262Z,99.99
2018-01-07T04:48:06.216Z,99.99
2018-01-07T04:49:16.168Z,99.99
2018-01-07T04:50:26.130Z,99.99
2018-01-07T04:51:35.835Z,99.99
2018-01-07T04:52:45.524Z,99.99
2018-01-07T04:53:55.217Z,99.99
2018-01-07T04:55:05.158Z,99.99
2018-01-07T04:56:15.104Z,99.99
2018-01-07T04:57:25.095Z,99.99
2018-01-07T04:58:35.054Z,99.99
2018-01-07T04:59:44.736Z,99.99
2018-01-07T05:00:54.438Z,99.99
2018-01-07T05:02:04.390Z,99.99
2018-01-07T05:03:14.089Z,99.99
2018-01-07T05:04:23.793Z,99.99
2018-01-07T05:05:33.490Z,99.99
2018-01-07T05:06:43.445Z,99.99
2018-01-07T05:07:53.128Z,99.99
2018-01-07T05:09:03.080Z,99.99
2018-01-07T05:10:13.019Z,99.99
2018-01-07T05:11:22.963Z,99.99
2018-01-07T05:12:32.400Z,99.99
2018-01-07T05:13:42.343Z,99.99
2018-01-07T05:14:52.291Z,99.99
2018-01-07T05:16:02.238Z,99.99
2018-01-07T05:17:12.182Z,99.99
2018-01-07T05:18:22.124Z,99.99
2018-01-07T05:19:32.069Z,99.99
2018-01-07T05:20:42.016Z,99.99
2018-01-07T05:21:51.963Z,99.99
2018-01-07T05:23:01.933Z,99.99
2018-01-07T05:24:11.897Z,99.99
2018-01-07T05:25:21.337Z,99.99
2018-01-07T05:26:31.272Z,99.99
2018-01-07T05:27:40.948Z,99.99
2018-01-07T05:28:50.897Z,99.99
2018-01-07T05:30:00.585Z,99.99
2018-01-07T05:31:10.274Z,99.99
2018-01-07T05:32:19.956Z,99.99
2018-01-07T05:33:29.639Z,99.99
2018-01-07T05:34:39.582Z,99.99
2018-01-07T05:35:49.265Z,99.99
2018-01-07T05:36:59.206Z,99.99
2018-01-07T05:38:09.158Z,99.99
2018-01-07T05:39:19.113Z,99.99
2018-01-07T05:40:29.056Z,99.99
2018-01-07T05:41:38.756Z,99.99
2018-01-07T05:42:48.754Z,99.99
2018-01-07T05:43:58.701Z,99.99
2018-01-07T05:45:08.392Z,99.99
2018-01-07T05:46:18.349Z,99.99
2018-01-07T05:47:28.294Z,99.99
2018-01-07T05:48:37.978Z,99.99
2018-01-07T05:49:47.937Z,99.99
2018-01-07T05:50:57.884Z,99.99
2018-01-07T05:52:07.827Z,99.99
2018-01-07T05:53:17.509Z,99.99
2018-01-07T05:54:27.196Z,99.99
2018-01-07T05:55:37.147Z,99.99
2018-01-07T05:56:47.093Z,99.99
2018-01-07T05:57:56.520Z,99.99
2018-01-07T05:59:06.461Z,99.99
2018-01-07T06:00:16.403Z,99.99
2018-01-07T06:01:26.348Z,99.99
2018-01-07T06:02:36.291Z,99.99
2018-01-07T06:03:46.251Z,99.99
2018-01-07T06:04:56.208Z,99.99
2018-01-07T06:06:06.150Z,99.99
2018-01-07T06:07:16.095Z,99.99
2018-01-07T06:08:25.786Z,99.99
2018-01-07T06:09:35.724Z,99.99
2018-01-07T06:10:45.689Z,99.99
2018-01-07T06:11:56.530Z,99.99
2018-01-07T06:13:06.215Z,99.99
2018-01-07T06:14:16.169Z,99.99
2018-01-07T06:15:26.121Z,99.99
2018-01-07T06:16:36.063Z,99.99
2018-01-07T06:17:45.750Z,99.99
2018-01-07T06:18:55.697Z,99.99
2018-01-07T06:20:05.644Z,99.99
2018-01-07T06:21:15.379Z,99.99
2018-01-07T06:22:25.324Z,99.99
2018-01-07T06:23:35.009Z,99.99
2018-01-07T06:24:44.703Z,99.99
2018-01-07T06:25:54.655Z,99.99
2018-01-07T06:27:04.617Z,99.99
2018-01-07T06:28:14.704Z,99.99
2018-01-07T06:29:24.400Z,99.99
2018-01-07T06:30:34.355Z,99.99
2018-01-07T06:31:44.306Z,99.99
2018-01-07T06:32:54.000Z,99.99
2018-01-07T06:34:03.943Z,99.99
2018-01-07T06:35:13.898Z,99.99
2018-01-07T06:36:23.594Z,99.99
2018-01-07T06:37:33.550Z,99.99
2018-01-07T06:38:43.233Z,99.99
2018-01-07T06:39:53.182Z,99.99
2018-01-07T06:41:03.142Z,99.99
2018-01-07T06:42:13.084Z,99.99
2018-01-07T06:43:23.033Z,99.99
2018-01-07T06:44:32.973Z,99.99
2018-01-07T06:45:42.929Z,99.99
2018-01-07T06:46:52.884Z,99.99
2018-01-07T06:48:02.572Z,99.99
2018-01-07T06:49:12.506Z,99.99
2018-01-07T06:50:22.483Z,99.99
2018-01-07T06:51:32.423Z,99.99
2018-01-07T06:52:42.374Z,99.99
2018-01-07T06:53:52.077Z,99.99
2018-01-07T06:55:01.776Z,99.99
2018-01-07T06:56:11.733Z,99.99
2018-01-07T06:57:21.439Z,99.99
2018-01-07T06:58:31.402Z,99.99
2018-01-07T06:59:41.364Z,99.99
2018-01-07T07:00:51.318Z,99.99
2018-01-07T07:02:01.004Z,99.99
2018-01-07T07:03:10.683Z,99.99
2018-01-07T07:04:20.113Z,99.99
2018-01-07T07:05:30.053Z,99.99
2018-01-07T07:06:39.733Z,99.99
2018-01-07T07:07:49.417Z,99.99
2018-01-07T07:08:59.408Z,99.99
2018-01-07T07:10:09.396Z,99.99
2018-01-07T07:11:19.349Z,99.99
2018-01-07T07:12:29.289Z,99.99
2018-01-07T07:13:38.974Z,99.99
2018-01-07T07:14:48.666Z,99.99
2018-01-07T07:15:58.606Z,99.99
2018-01-07T07:17:07.775Z,99.99
2018-01-07T07:18:17.728Z,99.99
2018-01-07T07:19:27.683Z,99.99
2018-01-07T07:20:37.625Z,99.99
2018-01-07T07:21:47.383Z,99.99
2018-01-07T07:22:57.332Z,99.99
2018-01-07T07:24:07.282Z,99.99
2018-01-07T07:25:17.218Z,99.99
2018-01-07T07:26:27.167Z,99.99
2018-01-07T07:27:37.108Z,99.99
2018-01-07T07:28:46.534Z,99.99
2018-01-07T07:29:55.967Z,99.99
2018-01-07T07:31:05.913Z,99.99
2018-01-07T07:32:15.853Z,99.99
2018-01-07T07:33:25.816Z,99.99
2018-01-07T07:34:35.258Z,99.99
2018-01-07T07:35:45.222Z,99.99
2018-01-07T07:36:54.920Z,99.99
2018-01-07T07:38:04.866Z,99.99
2018-01-07T07:39:14.553Z,99.99
2018-01-07T07:40:24.715Z,99.99
2018-01-07T07:41:34.675Z,99.99
2018-01-07T07:42:44.617Z,99.99
2018-01-07T07:43:54.576Z,99.99
2018-01-07T07:45:04.533Z,99.99
2018-01-07T07:46:14.225Z,99.99
2018-01-07T07:47:24.167Z,99.99
2018-01-07T07:48:33.849Z,99.99
2018-01-07T07:49:43.535Z,99.99
2018-01-07T07:50:53.469Z,99.99
2018-01-07T07:52:03.416Z,99.99
2018-01-07T07:53:13.374Z,99.99
2018-01-07T07:54:23.070Z,99.99
2018-01-07T07:55:33.049Z,99.99
2018-01-07T07:56:42.481Z,99.99
2018-01-07T07:57:52.186Z,99.99
2018-01-07T07:59:02.145Z,99.99
2018-01-07T08:00:12.101Z,99.99
2018-01-07T08:01:22.082Z,99.99
2018-01-07T08:02:32.032Z,99.99
2018-01-07T08:03:41.989Z,99.99
2018-01-07T08:04:51.933Z,99.99
2018-01-07T08:06:01.889Z,99.99
2018-01-07T08:07:11.844Z,99.99
2018-01-07T08:08:21.290Z,99.99
2018-01-07T08:09:30.982Z,99.99
2018-01-07T08:10:40.950Z,99.99
2018-01-07T08:11:50.907Z,99.99
2018-01-07T08:13:00.852Z,99.99
2018-01-07T08:14:10.789Z,99.99
2018-01-07T08:15:19.972Z,99.99
2018-01-07T08:16:29.661Z,99.99
2018-01-07T08:17:39.354Z,99.99
2018-01-07T08:18:49.309Z,99.99
2018-01-07T08:19:59.262Z,99.99
2018-01-07T08:21:09.214Z,99.99
2018-01-07T08:22:18.906Z,99.99
2018-01-07T08:23:28.608Z,99.99
2018-01-07T08:24:38.597Z,99.99
2018-01-07T08:25:48.551Z,99.99
2018-01-07T08:26:58.234Z,99.99
2018-01-07T08:28:07.921Z,99.99
2018-01-07T08:29:17.869Z,99.99
2018-01-07T08:30:27.820Z,99.99
2018-01-07T08:31:37.790Z,99.99
2018-01-07T08:32:47.764Z,99.99
2018-01-07T08:33:57.711Z,99.99
2018-01-07T08:35:07.680Z,99.99
2018-01-07T08:36:17.385Z,99.99
2018-01-07T08:37:27.327Z,99.99
2018-01-07T08:38:37.026Z,99.99
2018-01-07T08:39:46.999Z,99.99
2018-01-07T08:40:56.967Z,99.99
2018-01-07T08:42:06.736Z,99.99
2018-01-07T08:43:16.693Z,99.99
2018-01-07T08:44:26.637Z,99.99
2018-01-07T08:45:36.585Z,99.99
2018-01-07T08:46:46.532Z,99.99
2018-01-07T08:47:56.479Z,99.99
2018-01-07T08:49:06.175Z,99.99
2018-01-07T08:50:16.133Z,99.99
2018-01-07T08:51:26.108Z,99.99
2018-01-07T08:52:36.053Z,99.99
2018-01-07T08:53:45.759Z,99.99
2018-01-07T08:54:55.694Z,99.99
2018-01-07T08:56:05.637Z,99.99
2018-01-07T08:57:15.336Z,99.99
2018-01-07T08:58:25.035Z,99.99
2018-01-07T08:59:35.017Z,99.99
2018-01-07T09:00:44.978Z,99.99
2018-01-07T09:01:54.680Z,99.99
2018-01-07T09:03:04.645Z,99.99
2018-01-07T09:04:14.354Z,99.99
2018-01-07T09:05:24.307Z,99.99
2018-01-07T09:06:34.257Z,99.99
2018-01-07T09:07:44.220Z,99.99
2018-01-07T09:08:54.181Z,99.99
2018-01-07T09:10:03.889Z,99.99
2018-01-07T09:11:13.860Z,99.99
2018-01-07T09:12:23.809Z,99.99
2018-01-07T09:13:33.755Z,99.99
2018-01-07T09:14:43.700Z,99.99
2018-01-07T09:15:53.682Z,99.99
2018-01-07T09:17:03.373Z,99.99
2018-01-07T09:18:13.080Z,99.99
2018-01-07T09:19:22.785Z,99.99
2018-01-07T09:20:32.760Z,99.99
2018-01-07T09:21:42.718Z,99.99
2018-01-07T09:22:52.424Z,99.99
2018-01-07T09:24:02.111Z,99.99
2018-01-07T09:25:11.833Z,99.99
2018-01-07T09:26:21.780Z,99.99
2018-01-07T09:27:31.736Z,99.99
2018-01-07T09:28:41.709Z,99.99
2018-01-07T09:29:51.668Z,99.99
2018-01-07T09:31:01.617Z,99.99
2018-01-07T09:32:11.573Z,99.99
2018-01-07T09:33:21.585Z,99.99
2018-01-07T09:34:31.538Z,99.99
2018-01-07T09:35:41.490Z,99.99
2018-01-07T09:36:51.460Z,99.99
2018-01-07T09:38:01.423Z,99.99
2018-01-07T09:39:11.372Z,99.99
2018-01-07T09:40:21.342Z,99.99
2018-01-07T09:41:30.531Z,99.99
2018-01-07T09:42:40.232Z,99.99
2018-01-07T09:43:49.692Z,99.99
2018-01-07T09:44:59.643Z,99.99
2018-01-07T09:46:09.352Z,99.99
2018-01-07T09:47:19.316Z,99.99
2018-01-07T09:48:29.267Z,99.99
2018-01-07T09:49:39.212Z,99.99
2018-01-07T09:50:48.386Z,99.99
2018-01-07T09:51:58.092Z,99.99
2018-01-07T09:53:07.789Z,99.99
2018-01-07T09:54:17.483Z,99.99
2018-01-07T09:55:27.189Z,99.99
2018-01-07T09:56:37.142Z,99.99
2018-01-07T09:57:46.873Z,99.99
2018-01-07T09:58:56.830Z,99.99
2018-01-07T10:00:06.520Z,99.99
2018-01-07T10:01:16.220Z,99.99
2018-01-07T10:02:26.185Z,99.99
2018-01-07T10:03:35.890Z,99.99
2018-01-07T10:04:45.890Z,99.99
2018-01-07T10:05:55.867Z,99.99
2018-01-07T10:07:05.570Z,99.99
2018-01-07T10:08:15.270Z,99.99
2018-01-07T10:09:25.240Z,99.99
2018-01-07T10:10:34.925Z,99.99
2018-01-07T10:11:44.892Z,99.99
2018-01-07T10:12:54.869Z,99.99
2018-01-07T10:14:04.817Z,99.99
2018-01-07T10:15:14.780Z,99.99
2018-01-07T10:16:24.735Z,99.99
2018-01-07T10:17:34.179Z,99.99
2018-01-07T10:18:44.128Z,99.99
2018-01-07T10:19:54.096Z,99.99
2018-01-07T10:21:04.064Z,99.99
2018-01-07T10:22:14.050Z,99.99
2018-01-07T10:23:23.737Z,99.99
2018-01-07T10:24:33.703Z,99.99
2018-01-07T10:25:43.407Z,99.99
2018-01-07T10:26:53.107Z,99.99
2018-01-07T10:28:03.064Z,99.99
2018-01-07T10:29:13.026Z,99.99
2018-01-07T10:30:22.731Z,99.62
2018-01-07T10:31:32.729Z,99.99
2018-01-07T10:32:42.533Z,99.99
2018-01-07T10:33:52.247Z,99.43
2018-01-07T10:35:01.939Z,98.86
2018-01-07T10:36:11.654Z,99.81
2018-01-07T10:37:21.357Z,99.62
2018-01-07T10:38:31.341Z,99.24
2018-01-07T10:39:41.039Z,99.71
2018-01-07T10:40:50.988Z,99.33
2018-01-07T10:42:00.940Z,99.24
2018-01-07T10:43:10.892Z,98.68
2018-01-07T10:44:20.855Z,99.24
2018-01-07T10:45:30.819Z,98.39
2018-01-07T10:46:40.780Z,98.77
2018-01-07T10:47:50.728Z,98.49
2018-01-07T10:49:00.680Z,98.68
2018-01-07T10:50:10.394Z,98.39
2018-01-07T10:51:20.331Z,98.77
2018-01-07T10:52:30.292Z,99.15
2018-01-07T10:53:39.989Z,98.58
2018-01-07T10:54:49.974Z,98.58
2018-01-07T10:55:59.955Z,98.77
2018-01-07T10:57:09.925Z,98.86
2018-01-07T10:58:19.889Z,98.77
2018-01-07T10:59:29.335Z,98.68
2018-01-07T11:00:39.026Z,98.86
2018-01-07T11:01:48.997Z,99.33
2018-01-07T11:02:58.678Z,99.71
2018-01-07T11:04:08.710Z,98.68
2018-01-07T11:05:18.666Z,98.68
2018-01-07T11:06:28.635Z,98.68
2018-01-07T11:07:38.626Z,98.3
2018-01-07T11:08:48.592Z,98.11
2018-01-07T11:09:58.560Z,98.39
2018-01-07T11:11:08.552Z,97.92
2018-01-07T11:12:18.262Z,97.54
2018-01-07T11:13:28.224Z,97.97
2018-01-07T11:14:38.245Z,97.78
2018-01-07T11:15:47.741Z,96.92
2018-01-07T11:16:57.457Z,96.36
2018-01-07T11:18:07.418Z,96.26
2018-01-07T11:19:17.131Z,95.79
2018-01-07T11:20:26.822Z,95.69
2018-01-07T11:21:36.783Z,95.41
2018-01-07T11:22:46.739Z,96.36
2018-01-07T11:23:56.450Z,95.69
2018-01-07T11:25:06.421Z,94.56
2018-01-07T11:26:15.887Z,94.46
2018-01-07T11:27:25.601Z,94.56
2018-01-07T11:28:35.291Z,94.84
2018-01-07T11:29:45.251Z,94.08
2018-01-07T11:30:55.200Z,94.74
2018-01-07T11:32:04.894Z,94.46
2018-01-07T11:33:14.625Z,94.46
2018-01-07T11:34:24.594Z,95.03
2018-01-07T11:35:34.292Z,95.03
2018-01-07T11:36:43.992Z,95.31
2018-01-07T11:37:53.945Z,94.84
2018-01-07T11:39:03.903Z,94.93
2018-01-07T11:40:13.614Z,94.84
2018-01-07T11:41:23.593Z,94.65
2018-01-07T11:42:33.556Z,94.56
2018-01-07T11:43:43.253Z,95.31
2018-01-07T11:44:53.227Z,95.31
2018-01-07T11:46:02.666Z,96.07
2018-01-07T11:47:12.659Z,95.41
2018-01-07T11:48:22.636Z,95.5
2018-01-07T11:49:32.597Z,95.69
2018-01-07T11:50:42.561Z,95.03
2018-01-07T11:51:52.273Z,95.5
2018-01-07T11:53:01.975Z,95.98
2018-01-07T11:54:11.831Z,95.69
2018-01-07T11:55:21.787Z,95.5
2018-01-07T11:56:31.491Z,95.98
2018-01-07T11:57:41.486Z,96.45
2018-01-07T11:58:51.242Z,95.69
2018-01-07T12:00:01.254Z,95.88
2018-01-07T12:01:10.703Z,96.07
2018-01-07T12:02:20.666Z,96.83
2018-01-07T12:03:30.381Z,96.26
2018-01-07T12:04:40.415Z,95.79
2018-01-07T12:05:50.368Z,95.31
2018-01-07T12:07:00.335Z,94.37
2018-01-07T12:08:10.038Z,94.56
2018-01-07T12:09:19.989Z,94.37
2018-01-07T12:10:29.941Z,95.41
2018-01-07T12:11:39.647Z,95.22
2018-01-07T12:12:49.355Z,94.93
2018-01-07T12:13:59.057Z,94.93
2018-01-07T12:15:08.761Z,94.65
2018-01-07T12:16:18.720Z,94.84
2018-01-07T12:17:28.686Z,95.22
2018-01-07T12:18:38.378Z,95.88
2018-01-07T12:19:48.339Z,96.83
2018-01-07T12:20:58.298Z,95.69
2018-01-07T12:22:08.262Z,95.79
2018-01-07T12:23:18.214Z,96.36
2018-01-07T12:24:28.161Z,96.17
2018-01-07T12:25:38.363Z,96.17
2018-01-07T12:26:48.312Z,95.98
2018-01-07T12:27:58.272Z,96.17
2018-01-07T12:29:07.971Z,97.02
2018-01-07T12:30:17.932Z,97.78
2018-01-07T12:31:27.940Z,97.59
2018-01-07T12:32:37.637Z,96.83
2018-01-07T12:33:47.595Z,97.3
2018-01-07T12:34:57.566Z,97.21
2018-01-07T12:36:07.524Z,97.21
2018-01-07T12:37:17.235Z,96.92
2018-01-07T12:38:26.920Z,97.87
2018-01-07T12:39:37.056Z,97.87
2018-01-07T12:40:47.014Z,97.87
2018-01-07T12:41:56.977Z,98.25
2018-01-07T12:43:07.147Z,97.87
2018-01-07T12:44:17.121Z,97.49
2018-01-07T12:45:27.077Z,97.21
2018-01-07T12:46:37.052Z,97.59
2018-01-07T12:47:47.019Z,98.06
2018-01-07T12:48:56.979Z,98.16
2018-01-07T12:50:06.970Z,97.59
2018-01-07T12:51:16.935Z,98.16
2018-01-07T12:52:26.917Z,98.16
2018-01-07T12:53:36.608Z,98.3
2018-01-07T12:54:46.321Z,97.78
2018-01-07T12:55:56.026Z,97.73
2018-01-07T12:57:05.979Z,98.11
2018-01-07T12:58:15.940Z,98.2
2018-01-07T12:59:25.927Z,98.01
2018-01-07T13:00:35.902Z,98.58
2018-01-07T13:01:45.859Z,98.39
2018-01-07T13:02:55.574Z,97.25
2018-01-07T13:04:05.282Z,97.54
2018-01-07T13:05:15.250Z,97.82
2018-01-07T13:06:25.237Z,97.63
2018-01-07T13:07:34.938Z,97.54
2018-01-07T13:08:44.900Z,97.11
2018-01-07T13:09:54.864Z,97.02
2018-01-07T13:11:04.312Z,97.02
2018-01-07T13:12:14.272Z,97.54
2018-01-07T13:13:24.268Z,97.49
2018-01-07T13:14:34.228Z,96.92
2018-01-07T13:15:43.927Z,96.88
2018-01-07T13:16:53.886Z,96.64
2018-01-07T13:18:03.838Z,97.06
2018-01-07T13:19:13.797Z,96.97
2018-01-07T13:20:23.757Z,98.01
2018-01-07T13:21:33.708Z,98.68
2018-01-07T13:22:43.665Z,97.44
2018-01-07T13:23:53.639Z,97.06
2018-01-07T13:25:03.087Z,96.88
2018-01-07T13:26:13.044Z,96.88
2018-01-07T13:27:23.003Z,96.88
2018-01-07T13:28:32.704Z,97.16
2018-01-07T13:29:42.651Z,98.2
2018-01-07T13:30:52.600Z,98.11
2018-01-07T13:32:02.573Z,98.11
2018-01-07T13:33:12.343Z,97.92
2018-01-07T13:34:22.035Z,96.97
2018-01-07T13:35:31.987Z,97.44
2018-01-07T13:36:41.938Z,97.63
2018-01-07T13:37:51.899Z,97.63
2018-01-07T13:39:01.850Z,97.82
2018-01-07T13:40:11.569Z,97.82
2018-01-07T13:41:21.279Z,97.35
2018-01-07T13:42:31.237Z,97.54
2018-01-07T13:43:40.945Z,97.35
2018-01-07T13:44:50.904Z,97.35
2018-01-07T13:46:00.880Z,97.06
2018-01-07T13:47:10.571Z,96.5
2018-01-07T13:48:20.515Z,97.25
2018-01-07T13:49:30.209Z,98.01
2018-01-07T13:50:39.908Z,96.97
2018-01-07T13:51:49.853Z,96.4
2018-01-07T13:52:59.826Z,96.31
2018-01-07T13:54:09.799Z,95.07
2018-01-07T13:55:19.498Z,95.36
2018-01-07T13:56:29.443Z,95.93
2018-01-07T13:57:39.395Z,95.88
2018-01-07T13:58:49.399Z,96.55
2018-01-07T13:59:59.399Z,96.26
2018-01-07T14:01:08.821Z,95.79
2018-01-07T14:02:18.793Z,95.79
2018-01-07T14:03:28.250Z,95.03
2018-01-07T14:04:37.951Z,94.65
2018-01-07T14:05:47.926Z,93.42
2018-01-07T14:06:57.366Z,94.27
2018-01-07T14:08:07.341Z,93.65
2018-01-07T14:09:17.046Z,92.9
2018-01-07T14:10:27.003Z,92.33
2018-01-07T14:11:36.976Z,92.33
2018-01-07T14:12:46.956Z,91.76
2018-01-07T14:13:56.955Z,91.95
2018-01-07T14:15:06.404Z,92.71
2018-01-07T14:16:15.859Z,92.14
2018-01-07T14:17:25.820Z,92.57
2018-01-07T14:18:35.512Z,92.76
2018-01-07T14:19:45.478Z,92.94
2018-01-07T14:20:55.434Z,92.47
2018-01-07T14:22:05.139Z,92.94
2018-01-07T14:23:15.104Z,93.42
2018-01-07T14:24:24.792Z,93.8
2018-01-07T14:25:34.494Z,94.65
2018-01-07T14:26:44.456Z,95.93
2018-01-07T14:27:54.413Z,97.06
2018-01-07T14:29:04.367Z,95.83
2018-01-07T14:30:14.084Z,96.12
2018-01-07T14:31:23.789Z,96.12
2018-01-07T14:32:33.739Z,96.12
2018-01-07T14:33:43.687Z,95.93
2018-01-07T14:34:53.643Z,95.93
2018-01-07T14:36:03.844Z,96.97
2018-01-07T14:37:13.793Z,97.82
2018-01-07T14:38:23.498Z,98.39
2018-01-07T14:39:33.475Z,97.54
2018-01-07T14:40:43.433Z,97.63
2018-01-07T14:41:53.387Z,97.77
2018-01-07T14:43:03.345Z,98.25
2018-01-07T14:44:13.305Z,98.34
2018-01-07T14:45:23.253Z,98.63
2018-01-07T14:46:33.208Z,98.53
2018-01-07T14:47:43.153Z,99.19
2018-01-07T14:48:53.103Z,99.85
2018-01-07T14:50:03.058Z,99.99
2018-01-07T14:51:13.240Z,99.85
2018-01-07T14:52:22.674Z,99.99
2018-01-07T14:53:32.112Z,99.99
2018-01-07T14:54:42.065Z,99.99
2018-01-07T14:55:52.019Z,99.99
2018-01-07T14:57:02.048Z,99.99
2018-01-07T14:58:11.744Z,99.99
2018-01-07T14:59:21.446Z,99.99
2018-01-07T15:00:31.394Z,99.99